Time;durP1;ratioP1;P1;durP2;ratioP2;P2;SDS_P1;SDS_P2;PMS_P1;PMS_P2;Temp;Humidity;BMP_temperature;BMP_pressure;BME280_temperature;BME280_humidity;BME280_pressure;Samples;Min_cycle;Max_cycle;Signal;HPM_P1;HPM_P2
2023/08/12 00:00:48;;;;;;;5.18;1.90;;;;;;;-146.27;91.27;81062.59;5027893;28;20029;-71
2023/08/12 00:03:13;;;;;;;11.85;2.65;;;;;;;-146.27;92.09;81106.78;5026024;28;20183;-69
2023/08/12 00:05:39;;;;;;;4.70;2.15;;;;;;;-146.27;92.44;81122.84;5028716;28;20037;-71
2023/08/12 00:08:05;;;;;;;6.15;2.35;;;;;;;-146.27;92.23;81042.53;5031931;28;20756;-71
2023/08/12 00:10:32;;;;;;;5.35;2.10;;;;;;;-146.27;92.36;81070.66;5028720;28;20524;-70
2023/08/12 00:12:57;;;;;;;6.35;2.55;;;;;;;-146.27;92.52;81056.59;5030720;28;20057;-69
2023/08/12 00:15:23;;;;;;;7.72;2.20;;;;;;;-146.27;92.61;81084.69;5028048;28;20393;-71
2023/08/12 00:17:48;;;;;;;10.88;2.63;;;;;;;-146.27;92.61;81106.78;5031401;28;20029;-71
2023/08/12 00:20:14;;;;;;;5.15;2.17;;;;;;;-146.27;92.84;81042.53;5029836;28;20088;-70
2023/08/12 00:22:40;;;;;;;6.07;2.10;;;;;;;-146.27;92.53;81074.66;5025716;28;20115;-71
2023/08/12 00:25:06;;;;;;;5.97;2.20;;;;;;;-146.27;92.83;81096.75;5024854;28;20103;-70
2023/08/12 00:27:32;;;;;;;10.80;2.58;;;;;;;-146.27;92.48;81096.75;5022255;28;20036;-70
2023/08/12 00:29:57;;;;;;;6.18;2.38;;;;;;;-146.27;92.28;81088.72;5019337;28;20033;-69
2023/08/12 00:32:22;;;;;;;5.57;1.90;;;;;;;-146.27;92.21;81090.72;5023201;28;20489;-70
2023/08/12 00:34:48;;;;;;;4.72;2.20;;;;;;;-146.27;92.26;81080.69;5023918;28;20470;-70
2023/08/12 00:37:13;;;;;;;8.13;2.45;;;;;;;-146.27;91.97;81082.69;5026534;28;20044;-69
2023/08/12 00:39:38;;;;;;;7.93;2.60;;;;;;;-146.27;92.42;81066.63;5021429;28;20128;-69
2023/08/12 00:42:04;;;;;;;11.70;2.50;;;;;;;-146.27;92.63;81066.63;5022485;28;20090;-69
2023/08/12 00:44:30;;;;;;;7.43;2.08;;;;;;;-146.27;92.88;81102.78;5023398;28;20064;-72
2023/08/12 00:46:55;;;;;;;5.72;2.72;;;;;;;-146.27;92.55;81082.69;5019568;28;20039;-72
2023/08/12 00:49:22;;;;;;;5.57;2.10;;;;;;;-146.27;92.87;81082.69;5021992;28;20099;-72
2023/08/12 00:51:50;;;;;;;6.28;2.47;;;;;;;-146.27;92.98;81028.47;5023840;28;20037;-72
2023/08/12 00:54:16;;;;;;;5.40;2.10;;;;;;;-146.27;92.82;81074.66;5020219;28;20025;-72
2023/08/12 00:56:42;;;;;;;5.03;1.90;;;;;;;-146.27;93.06;81114.81;5022286;28;20025;-72
2023/08/12 00:59:09;;;;;;;10.88;2.40;;;;;;;-146.27;93.18;81124.88;5022418;28;20091;-72
2023/08/12 01:01:35;;;;;;;7.22;2.53;;;;;;;-146.27;92.90;81126.88;5018127;28;20260;-72
2023/08/12 01:04:01;;;;;;;7.53;2.35;;;;;;;-146.27;93.17;81094.75;5022715;28;21177;-72
2023/08/12 01:06:26;;;;;;;9.05;2.42;;;;;;;-146.27;93.58;81094.75;5024136;28;20077;-72
2023/08/12 01:08:53;;;;;;;5.35;2.20;;;;;;;-146.27;93.36;81070.66;5015779;28;20033;-71
2023/08/12 01:11:28;;;;;;;10.00;2.50;;;;;;;-146.27;93.62;81114.81;5025624;28;20028;-72
2023/08/12 01:14:13;;;;;;;7.20;1.98;;;;;;;-146.27;93.63;81102.78;5021244;28;20017;-72
2023/08/12 01:16:43;;;;;;;7.95;2.47;;;;;;;-146.27;94.27;81114.81;5023696;28;20642;-72
2023/08/12 01:19:16;;;;;;;6.20;2.63;;;;;;;-146.27;94.13;81108.81;5019715;28;20029;-72
2023/08/12 01:21:44;;;;;;;4.53;2.65;;;;;;;-146.27;94.13;81054.56;5021645;28;20557;-72
2023/08/12 01:24:09;;;;;;;9.30;2.70;;;;;;;-146.27;93.89;81084.69;5016526;28;20088;-72
2023/08/12 01:26:35;;;;;;;7.57;2.95;;;;;;;-146.27;93.57;81114.81;5019743;28;20029;-72
2023/08/12 01:29:00;;;;;;;9.80;2.75;;;;;;;-146.27;93.72;81086.72;5018114;28;20029;-72
2023/08/12 01:31:38;;;;;;;8.25;2.67;;;;;;;-146.27;93.87;81092.72;5014999;28;20064;-72
2023/08/12 01:34:36;;;;;;;8.27;3.25;;;;;;;-146.27;93.76;81062.59;5021587;28;20032;-72
2023/08/12 01:37:06;;;;;;;8.10;2.75;;;;;;;-146.27;93.76;81106.78;5019317;28;20076;-72
2023/08/12 01:39:33;;;;;;;10.82;3.08;;;;;;;-146.27;94.00;81106.78;5021758;28;20017;-72
2023/08/12 01:41:59;;;;;;;7.97;3.08;;;;;;;-146.27;94.40;81082.69;5023784;28;20521;-73
2023/08/12 01:44:25;;;;;;;9.93;4.10;;;;;;;-146.27;94.27;81102.78;5021232;28;20029;-72
2023/08/12 01:46:50;;;;;;;6.90;3.20;;;;;;;-146.27;94.00;81066.63;5024894;28;20040;-72
2023/08/12 01:49:15;;;;;;;7.93;3.33;;;;;;;-146.27;94.62;81090.72;5018570;28;20033;-72
2023/08/12 01:51:41;;;;;;;12.48;3.35;;;;;;;-146.27;94.60;81104.78;5017614;28;20075;-72
2023/08/12 01:54:06;;;;;;;7.95;3.00;;;;;;;-146.27;94.35;81086.72;5016185;28;20595;-71
2023/08/12 01:56:32;;;;;;;8.98;3.50;;;;;;;-146.27;94.58;81078.69;5022093;28;20409;-70
2023/08/12 01:58:57;;;;;;;7.57;3.85;;;;;;;-146.27;94.57;81100.75;5018962;28;20140;-70
2023/08/12 02:01:22;;;;;;;8.15;2.97;;;;;;;-146.27;94.58;81092.72;5015424;28;20037;-70
2023/08/12 02:03:48;;;;;;;14.35;4.18;;;;;;;-146.27;94.38;81060.59;5020790;28;20381;-70
2023/08/12 02:06:13;;;;;;;13.88;3.55;;;;;;;-146.27;94.73;81056.59;5020889;28;20078;-70
2023/08/12 02:08:38;;;;;;;8.82;3.78;;;;;;;-146.27;94.70;81088.72;5013752;28;20120;-69
2023/08/12 02:11:04;;;;;;;7.22;4.10;;;;;;;-146.27;95.10;81080.69;5017969;28;21477;-70
2023/08/12 02:13:29;;;;;;;15.32;4.22;;;;;;;-146.27;95.20;81086.72;5019354;28;20036;-69
2023/08/12 02:15:55;;;;;;;14.60;4.43;;;;;;;-146.27;95.15;81088.72;5015466;28;20447;-70
2023/08/12 02:18:20;;;;;;;9.32;3.60;;;;;;;-146.27;95.35;81090.72;5019638;28;20033;-70
2023/08/12 02:20:48;;;;;;;10.15;4.50;;;;;;;-146.27;95.22;81076.66;5020413;28;20025;-70
2023/08/12 02:23:13;;;;;;;14.23;4.70;;;;;;;-146.27;95.47;81102.78;5018149;28;20029;-69
2023/08/12 02:25:38;;;;;;;11.20;4.63;;;;;;;-146.27;95.10;81082.69;5017820;28;20076;-70
2023/08/12 02:28:04;;;;;;;10.60;5.00;;;;;;;-146.27;95.36;81076.66;5018638;28;20021;-70
2023/08/12 02:30:30;;;;;;;7.32;5.05;;;;;;;-146.27;95.78;81082.69;5013427;28;21291;-70
2023/08/12 02:32:55;;;;;;;9.90;4.65;;;;;;;-146.27;95.96;81108.81;5019472;28;20033;-71
2023/08/12 02:35:21;;;;;;;10.48;4.90;;;;;;;-146.27;96.25;81108.81;5021072;28;20033;-71
2023/08/12 02:37:49;;;;;;;15.20;4.78;;;;;;;-146.27;96.44;81082.69;5014600;28;20033;-70
2023/08/12 02:40:14;;;;;;;14.23;5.47;;;;;;;-146.27;96.83;81062.59;5017643;28;20452;-70
2023/08/12 02:42:40;;;;;;;10.55;5.05;;;;;;;-146.27;96.95;81102.78;5017776;28;20021;-69
2023/08/12 02:45:05;;;;;;;11.10;5.43;;;;;;;-146.27;96.97;81102.78;5015334;28;21395;-70
2023/08/12 02:47:31;;;;;;;9.43;5.40;;;;;;;-146.27;96.98;81110.81;5029065;28;20029;-71
2023/08/12 02:49:56;;;;;;;9.65;6.32;;;;;;;-146.27;97.26;81110.81;5017407;28;20021;-70
2023/08/12 02:52:22;;;;;;;21.77;5.72;;;;;;;-146.27;97.99;81140.94;5012871;28;20025;-71
2023/08/12 02:54:47;;;;;;;11.38;6.38;;;;;;;-146.27;98.29;81126.88;5016028;28;20075;-70
2023/08/12 02:57:13;;;;;;;12.60;5.55;;;;;;;-146.27;98.33;81134.91;5018880;28;20025;-69
2023/08/12 02:59:38;;;;;;;11.05;5.72;;;;;;;-146.27;98.40;81106.78;5014671;28;20033;-70
2023/08/12 03:02:03;;;;;;;10.95;5.47;;;;;;;-146.27;98.86;81142.94;5016900;28;20103;-71
2023/08/12 03:04:29;;;;;;;12.85;5.68;;;;;;;-146.27;99.38;81157.00;5018510;28;20032;-72
2023/08/12 03:06:54;;;;;;;13.88;6.30;;;;;;;-146.27;99.58;81144.94;5014518;28;20508;-72
2023/08/12 03:09:20;;;;;;;11.45;6.50;;;;;;;-146.27;100.00;81150.97;5019756;28;20033;-72
2023/08/12 03:11:45;;;;;;;14.00;6.35;;;;;;;-146.27;100.00;81175.06;5014692;28;20037;-72
2023/08/12 03:14:11;;;;;;;10.50;5.95;;;;;;;-146.27;100.00;81157.00;5016523;28;20025;-72
2023/08/12 03:16:36;;;;;;;10.93;6.32;;;;;;;-146.27;100.00;81167.03;5015895;28;21339;-73
2023/08/12 03:19:02;;;;;;;11.77;6.28;;;;;;;-146.27;100.00;81181.09;5012168;28;20393;-72
2023/08/12 03:21:27;;;;;;;16.75;7.28;;;;;;;-146.27;100.00;81203.19;5017263;28;20477;-72
2023/08/12 03:23:53;;;;;;;12.65;6.65;;;;;;;-146.27;100.00;81199.16;5016850;28;20120;-72
2023/08/12 03:26:19;;;;;;;11.38;6.68;;;;;;;-146.27;100.00;81217.25;5017345;28;20084;-72
2023/08/12 03:28:44;;;;;;;14.07;7.40;;;;;;;-146.27;100.00;81150.97;5018614;28;20465;-72
2023/08/12 03:31:09;;;;;;;16.77;7.30;;;;;;;-146.27;100.00;81211.22;5017541;28;20029;-72
2023/08/12 03:33:35;;;;;;;13.73;6.85;;;;;;;-146.27;100.00;81185.13;5018896;28;20127;-72
2023/08/12 03:36:00;;;;;;;13.20;8.10;;;;;;;-146.27;100.00;81195.16;5017644;28;20076;-72
2023/08/12 03:38:26;;;;;;;14.23;7.32;;;;;;;-146.27;100.00;81187.13;5017580;28;20033;-72
2023/08/12 03:40:51;;;;;;;17.70;8.23;;;;;;;-146.27;100.00;81215.22;5015966;28;20029;-72
2023/08/12 03:43:16;;;;;;;14.15;7.60;;;;;;;-146.27;100.00;81195.16;5017968;28;20022;-72
2023/08/12 03:45:43;;;;;;;16.60;7.57;;;;;;;-146.27;100.00;81211.22;5017955;28;20068;-72
2023/08/12 03:48:09;;;;;;;18.90;7.85;;;;;;;-146.27;100.00;81195.16;5013677;28;20123;-72
2023/08/12 03:50:35;;;;;;;11.43;7.03;;;;;;;-146.27;100.00;81207.19;5016500;28;20029;-72
2023/08/12 03:53:01;;;;;;;14.32;7.20;;;;;;;-146.27;100.00;81235.31;5017712;28;20477;-72
2023/08/12 03:55:26;;;;;;;13.05;6.80;;;;;;;-146.27;100.00;81223.25;5014923;28;20061;-72
2023/08/12 03:57:52;;;;;;;15.45;6.47;;;;;;;-146.27;100.00;81199.16;5019087;28;20033;-72
2023/08/12 04:00:17;;;;;;;12.57;6.97;;;;;;;-146.27;100.00;81175.06;5016458;28;20037;-72
2023/08/12 04:02:43;;;;;;;14.45;8.10;;;;;;;-146.27;100.00;81205.19;5013380;28;20095;-72
2023/08/12 04:05:09;;;;;;;17.45;8.13;;;;;;;-146.27;100.00;81199.16;5021454;28;20395;-73
2023/08/12 04:07:36;;;;;;;13.00;7.60;;;;;;;-146.27;100.00;81201.19;5023753;28;20116;-72
2023/08/12 04:10:02;;;;;;;13.27;8.23;;;;;;;-146.27;100.00;81203.19;5014636;28;20037;-72
2023/08/12 04:12:27;;;;;;;17.80;8.38;;;;;;;-146.27;100.00;81185.13;5017952;28;20036;-72
2023/08/12 04:14:52;;;;;;;21.48;8.55;;;;;;;-146.27;100.00;81159.00;5016809;28;20020;-69
2023/08/12 04:17:18;;;;;;;13.98;8.55;;;;;;;-146.27;100.00;81118.84;5014093;28;20071;-69
2023/08/12 04:19:43;;;;;;;17.05;8.73;;;;;;;-146.27;100.00;81163.03;5020430;28;20480;-70
2023/08/12 04:22:09;;;;;;;15.88;8.55;;;;;;;-146.27;100.00;81171.06;5021685;28;20468;-69
2023/08/12 04:24:34;;;;;;;17.65;9.15;;;;;;;-146.27;100.00;81195.16;5016308;28;20590;-71
2023/08/12 04:26:59;;;;;;;17.13;9.65;;;;;;;-146.27;100.00;81171.06;5018388;28;20029;-71
2023/08/12 04:29:25;;;;;;;15.40;8.38;;;;;;;-146.27;100.00;81183.09;5012732;28;20029;-69
2023/08/12 04:31:52;;;;;;;18.55;10.43;;;;;;;-146.27;100.00;81195.16;5014610;28;20084;-70
2023/08/12 04:34:17;;;;;;;23.00;9.20;;;;;;;-146.27;100.00;81199.16;5019633;28;20512;-71
2023/08/12 04:36:43;;;;;;;18.33;9.55;;;;;;;-146.27;100.00;81199.16;5015900;28;20025;-70
2023/08/12 04:39:08;;;;;;;18.25;10.43;;;;;;;-146.27;100.00;81217.25;5013522;28;20032;-70
2023/08/12 04:41:34;;;;;;;19.35;9.23;;;;;;;-146.27;100.00;81199.16;5016352;28;20465;-70
2023/08/12 04:43:59;;;;;;;19.42;9.25;;;;;;;-146.27;100.00;81207.19;5012933;28;20032;-69
2023/08/12 04:46:24;;;;;;;17.75;10.23;;;;;;;-146.27;100.00;81235.31;5014695;28;20508;-70
2023/08/12 04:48:50;;;;;;;23.15;10.35;;;;;;;-146.27;100.00;81183.09;5017342;28;20025;-71
2023/08/12 04:51:15;;;;;;;14.10;9.00;;;;;;;-146.27;100.00;81195.16;5014264;28;20025;-71
2023/08/12 04:53:40;;;;;;;18.00;9.32;;;;;;;-146.27;100.00;81187.13;5018515;28;20117;-70
2023/08/12 04:56:06;;;;;;;22.27;10.02;;;;;;;-146.27;100.00;81191.13;5021729;28;20097;-71
2023/08/12 04:58:31;;;;;;;23.35;10.73;;;;;;;-146.27;100.00;81195.16;5016396;28;20038;-69
2023/08/12 05:00:57;;;;;;;17.48;9.00;;;;;;;-146.27;100.00;81191.13;5020870;28;20025;-71
2023/08/12 05:03:22;;;;;;;22.52;10.82;;;;;;;-146.27;100.00;81199.16;5019057;28;20460;-70
2023/08/12 05:05:51;;;;;;;21.02;10.38;;;;;;;-146.27;100.00;81155.00;5022133;28;20489;-70
2023/08/12 05:08:17;;;;;;;17.60;10.13;;;;;;;-146.27;100.00;81150.97;5021583;28;20488;-71
2023/08/12 05:10:42;;;;;;;25.80;9.95;;;;;;;-146.27;100.00;81142.94;5015871;28;20025;-69
2023/08/12 05:13:08;;;;;;;17.65;9.50;;;;;;;-146.27;100.00;81142.94;5018068;28;20037;-70
2023/08/12 05:15:33;;;;;;;25.20;9.90;;;;;;;-146.27;100.00;81167.03;5020270;28;20056;-70
2023/08/12 05:17:58;;;;;;;19.80;9.95;;;;;;;-146.27;100.00;81157.00;5019182;28;20120;-69
2023/08/12 05:20:24;;;;;;;15.68;9.57;;;;;;;-146.27;100.00;81167.03;5016021;28;20045;-70
2023/08/12 05:22:49;;;;;;;15.52;9.27;;;;;;;-146.27;100.00;81197.16;5021725;28;20500;-69
2023/08/12 05:25:14;;;;;;;17.75;10.63;;;;;;;-146.27;100.00;81181.09;5015195;28;20087;-73
2023/08/12 05:27:41;;;;;;;19.95;11.07;;;;;;;-146.27;100.00;81213.22;5019571;28;20038;-71
2023/08/12 05:30:07;;;;;;;24.60;12.15;;;;;;;-146.27;100.00;81195.16;5019372;28;20033;-71
2023/08/12 05:32:32;;;;;;;19.58;11.18;;;;;;;-146.27;100.00;81229.28;5015313;28;20484;-71
2023/08/12 05:34:58;;;;;;;21.38;11.60;;;;;;;-146.27;100.00;81225.28;5023805;28;20409;-71
2023/08/12 05:37:23;;;;;;;24.90;12.20;;;;;;;-146.27;100.00;81233.31;5019999;28;20117;-72
2023/08/12 05:39:48;;;;;;;24.02;13.38;;;;;;;-146.27;100.00;81271.47;5015326;28;20056;-71
2023/08/12 05:42:14;;;;;;;23.98;13.32;;;;;;;-146.27;100.00;81271.47;5018277;28;20029;-71
2023/08/12 05:44:41;;;;;;;26.10;13.82;;;;;;;-146.27;100.00;81277.50;5020443;28;20033;-71
2023/08/12 05:47:06;;;;;;;24.63;14.10;;;;;;;-146.27;100.00;81275.47;5016522;28;21326;-72
2023/08/12 05:49:31;;;;;;;36.15;14.73;;;;;;;-146.27;100.00;81271.47;5016247;28;20030;-71
2023/08/12 05:51:57;;;;;;;22.05;12.82;;;;;;;-146.27;100.00;81279.50;5019744;28;20024;-71
2023/08/12 05:54:22;;;;;;;25.00;15.00;;;;;;;-146.27;100.00;81319.66;5016429;28;20047;-71
2023/08/12 05:56:47;;;;;;;26.40;14.85;;;;;;;-146.27;100.00;81309.63;5026460;28;20389;-72
2023/08/12 05:59:13;;;;;;;29.55;14.40;;;;;;;-146.27;100.00;81335.72;5019205;28;20021;-72
2023/08/12 06:01:38;;;;;;;22.13;13.77;;;;;;;-146.27;100.00;81367.88;5016743;28;20041;-71
2023/08/12 06:04:03;;;;;;;23.15;13.88;;;;;;;-146.27;100.00;81371.88;5030108;28;20156;-71
2023/08/12 06:06:29;;;;;;;18.65;12.57;;;;;;;-146.27;100.00;81351.78;5028515;28;20049;-71
2023/08/12 06:08:54;;;;;;;23.38;14.10;;;;;;;-146.27;100.00;81404.00;5027650;28;20384;-71
2023/08/12 06:11:19;;;;;;;26.15;14.02;;;;;;;-146.27;100.00;81383.94;5022567;28;20143;-71
2023/08/12 06:13:45;;;;;;;23.70;13.13;;;;;;;-146.27;100.00;81353.81;5022876;28;20025;-71
2023/08/12 06:16:10;;;;;;;22.17;14.57;;;;;;;-146.27;100.00;81355.81;5021772;28;20026;-71
2023/08/12 06:18:36;;;;;;;26.25;12.68;;;;;;;-146.27;100.00;81371.88;5021165;28;20393;-71
2023/08/12 06:21:01;;;;;;;21.48;12.85;;;;;;;-146.27;100.00;81337.75;5023092;28;20025;-71
2023/08/12 06:23:26;;;;;;;22.77;13.13;;;;;;;-146.27;100.00;81375.91;5028874;28;20037;-71
2023/08/12 06:25:52;;;;;;;19.20;11.43;;;;;;;-146.27;100.00;81363.84;5027769;28;20056;-71
2023/08/12 06:28:17;;;;;;;16.25;10.68;;;;;;;-146.27;100.00;81369.88;5023846;28;20037;-71
2023/08/12 06:30:45;;;;;;;20.67;10.20;;;;;;;-146.27;100.00;81391.97;5022927;28;20028;-70
2023/08/12 06:33:11;;;;;;;17.25;11.57;;;;;;;-146.27;100.00;81331.72;5028686;28;20055;-70
2023/08/12 06:35:36;;;;;;;17.27;10.88;;;;;;;-146.27;100.00;81371.88;5026845;28;20464;-70
2023/08/12 06:38:02;;;;;;;20.83;9.60;;;;;;;-146.27;100.00;81369.88;5030452;28;20477;-70
2023/08/12 06:40:27;;;;;;;20.02;10.15;;;;;;;-146.27;100.00;81420.06;5025740;28;20052;-70
2023/08/12 06:42:53;;;;;;;19.30;10.77;;;;;;;-146.27;100.00;81414.06;5027960;28;20109;-71
2023/08/12 06:45:18;;;;;;;18.75;11.05;;;;;;;-146.27;100.00;81408.03;5021409;28;20025;-70
2023/08/12 06:47:44;;;;;;;13.90;9.75;;;;;;;-146.27;100.00;81393.97;5018009;28;21163;-72
2023/08/12 06:50:09;;;;;;;17.55;9.65;;;;;;;-146.27;100.00;81383.94;5026810;28;20080;-67
2023/08/12 06:52:34;;;;;;;16.60;9.63;;;;;;;-146.27;100.00;81375.91;5028804;28;20021;-68
2023/08/12 06:55:00;;;;;;;20.60;10.75;;;;;;;-146.27;100.00;81391.97;5022850;28;20370;-69
2023/08/12 06:57:25;;;;;;;14.73;8.23;;;;;;;-146.27;100.00;81359.81;5023030;28;20072;-69
2023/08/12 06:59:50;;;;;;;12.63;8.05;;;;;;;-146.27;100.00;81373.88;5024315;28;20033;-68
2023/08/12 07:02:16;;;;;;;13.98;6.95;;;;;;;-146.27;100.00;81379.91;5023329;28;20021;-68
2023/08/12 07:04:41;;;;;;;9.57;6.00;;;;;;;-146.27;100.00;81391.97;5025042;28;20068;-69
2023/08/12 07:07:07;;;;;;;10.70;6.10;;;;;;;-146.27;100.00;81436.16;5024410;28;20053;-69
2023/08/12 07:09:32;;;;;;;8.23;5.75;;;;;;;-146.27;100.00;81442.16;5025472;28;20021;-70
2023/08/12 07:11:58;;;;;;;9.43;5.57;;;;;;;-146.27;100.00;81420.06;5026284;28;20096;-69
2023/08/12 07:14:23;;;;;;;7.72;5.15;;;;;;;-146.27;100.00;81448.19;5022720;28;20021;-68
2023/08/12 07:16:49;;;;;;;13.48;4.05;;;;;;;-146.27;100.00;81604.84;5029348;28;20022;-69
2023/08/12 07:19:15;;;;;;;7.43;2.78;;;;;;;-146.27;100.00;81667.09;5025687;28;20057;-68
2023/08/12 07:21:40;;;;;;;7.18;3.00;;;;;;;-146.27;100.00;81763.50;5020951;28;20022;-68
2023/08/12 07:24:06;;;;;;;7.07;2.55;;;;;;;-146.27;100.00;81884.03;5029439;28;20039;-67
2023/08/12 07:26:31;;;;;;;8.52;2.42;;;;;;;-146.27;100.00;81886.03;5027552;28;20468;-68
2023/08/12 07:28:57;;;;;;;5.90;2.17;;;;;;;-146.27;100.00;81918.16;5029673;28;20029;-68
2023/08/12 07:31:22;;;;;;;8.38;1.85;;;;;;;-146.27;100.00;82002.53;5028676;28;20087;-67
2023/08/12 07:33:48;;;;;;;6.15;2.13;;;;;;;-146.27;100.00;81984.47;5029892;28;20037;-67
2023/08/12 07:36:13;;;;;;;6.97;2.47;;;;;;;-146.27;100.00;81962.34;5027691;28;20028;-67
2023/08/12 07:38:38;;;;;;;4.35;1.83;;;;;;;-146.27;100.00;81970.41;5029566;28;20079;-67
2023/08/12 07:41:04;;;;;;;9.70;2.42;;;;;;;-146.27;100.00;82006.53;5028506;28;20121;-66
2023/08/12 07:43:29;;;;;;;11.77;2.55;;;;;;;-146.27;100.00;82032.66;5023510;28;20378;-66
2023/08/12 07:45:55;;;;;;;7.47;2.35;;;;;;;-146.27;100.00;82032.66;5029584;28;20439;-66
2023/08/12 07:48:21;;;;;;;10.85;2.70;;;;;;;-146.27;100.00;81984.47;5028687;28;20029;-66
2023/08/12 07:50:48;;;;;;;8.10;2.72;;;;;;;-146.27;100.00;81976.41;5027497;28;20474;-66
2023/08/12 07:53:15;;;;;;;8.95;2.90;;;;;;;-146.27;100.00;81942.28;5026556;28;20030;-66
2023/08/12 07:55:41;;;;;;;7.68;2.38;;;;;;;-146.27;100.00;81934.25;5026724;28;20481;-66
2023/08/12 07:58:07;;;;;;;8.50;2.40;;;;;;;-146.27;100.00;81978.44;5026706;28;20482;-65
2023/08/12 08:00:33;;;;;;;10.23;2.63;;;;;;;-146.27;100.00;81932.22;5026970;28;20032;-65
2023/08/12 08:02:58;;;;;;;10.73;2.55;;;;;;;-146.27;100.00;81946.28;5025090;28;20073;-66
2023/08/12 08:05:23;;;;;;;5.95;3.67;;;;;;;-146.27;100.00;81984.47;5028937;28;20042;-65
2023/08/12 08:07:49;;;;;;;6.63;2.30;;;;;;;-146.27;100.00;81980.44;5026307;28;20053;-66
2023/08/12 08:10:14;;;;;;;9.63;2.53;;;;;;;-146.27;100.00;81966.38;5026457;28;20397;-67
2023/08/12 08:12:40;;;;;;;14.07;2.22;;;;;;;-146.27;100.00;81990.47;5025942;28;20662;-66
2023/08/12 08:15:06;;;;;;;6.00;1.98;;;;;;;-146.27;100.00;81962.34;5027836;28;20461;-68
2023/08/12 08:17:31;;;;;;;18.17;3.05;;;;;;;-146.27;100.00;81930.22;5027641;28;20033;-67
2023/08/12 08:19:56;;;;;;;11.60;2.40;;;;;;;-146.27;100.00;81922.19;5028074;28;20026;-66
2023/08/12 08:22:22;;;;;;;10.77;2.70;;;;;;;-146.27;100.00;81894.06;5029488;28;20087;-67
2023/08/12 08:24:47;;;;;;;11.57;2.30;;;;;;;-146.27;100.00;81878.00;5026484;28;20040;-67
2023/08/12 08:27:13;;;;;;;12.52;2.45;;;;;;;-146.27;100.00;81876.00;5030890;28;20104;-66
2023/08/12 08:29:38;;;;;;;11.57;2.15;;;;;;;-146.27;100.00;81882.00;5028619;28;20075;-66
2023/08/12 08:32:04;;;;;;;14.57;2.60;;;;;;;-146.27;100.00;81873.97;5033677;28;20029;-66
2023/08/12 08:34:29;;;;;;;14.02;2.22;;;;;;;-146.27;100.00;81873.97;5033243;28;20028;-66
2023/08/12 08:36:55;;;;;;;10.35;2.38;;;;;;;-146.27;100.00;81833.81;5026893;28;20025;-66
2023/08/12 08:39:21;;;;;;;15.05;2.08;;;;;;;-146.27;100.00;81843.84;5016003;28;20040;-65
2023/08/12 08:41:48;;;;;;;10.48;1.90;;;;;;;-146.27;100.00;81759.50;5025930;28;20150;-65
2023/08/12 08:44:14;;;;;;;8.75;1.77;;;;;;;-146.27;100.00;81795.66;5029855;28;20488;-69
2023/08/12 08:46:41;;;;;;;11.63;2.42;;;;;;;-146.27;100.00;81779.59;5029807;28;20029;-69
2023/08/12 08:49:08;;;;;;;7.13;1.92;;;;;;;-146.27;100.00;81757.50;5029257;28;20041;-70
2023/08/12 08:51:34;;;;;;;8.52;1.90;;;;;;;-146.27;100.00;81843.84;5028432;28;20028;-70
2023/08/12 08:54:02;;;;;;;8.25;2.15;;;;;;;-146.27;100.00;81813.72;5026303;28;20492;-72
2023/08/12 08:56:28;;;;;;;9.23;2.05;;;;;;;-146.27;100.00;81757.50;5023072;28;20032;-72
2023/08/12 08:58:53;;;;;;;8.50;1.80;;;;;;;-146.27;100.00;81759.50;5032911;28;20033;-72
2023/08/12 09:01:22;;;;;;;11.30;2.55;;;;;;;-146.27;100.00;81713.31;5028145;28;20018;-72
2023/08/12 09:03:50;;;;;;;7.15;1.98;;;;;;;-146.27;100.00;81673.13;5030675;28;20025;-72
2023/08/12 09:06:16;;;;;;;12.68;2.17;;;;;;;-146.27;100.00;81683.19;5031243;28;20065;-72
2023/08/12 09:08:45;;;;;;;7.90;1.80;;;;;;;-146.27;100.00;81641.00;5028913;28;20037;-72
2023/08/12 09:11:13;;;;;;;11.38;2.13;;;;;;;-146.27;100.00;81524.50;5029763;28;20033;-72
2023/08/12 09:13:38;;;;;;;6.90;1.65;;;;;;;-146.27;100.00;81474.31;5029288;28;20433;-72
2023/08/12 09:16:04;;;;;;;8.07;1.60;;;;;;;-146.27;100.00;81480.31;5031048;28;20026;-71
2023/08/12 09:18:29;;;;;;;9.48;1.63;;;;;;;-146.27;100.00;81432.13;5029777;28;20470;-71
2023/08/12 09:20:55;;;;;;;7.43;1.73;;;;;;;-146.27;96.06;81426.09;5033130;28;20492;-71
2023/08/12 09:23:20;;;;;;;7.65;1.52;;;;;;;-146.27;94.81;81400.00;5028152;28;20060;-71
2023/08/12 09:25:46;;;;;;;7.22;1.67;;;;;;;-146.27;93.17;81428.09;5032369;28;20060;-71
2023/08/12 09:28:13;;;;;;;8.48;1.85;;;;;;;-146.27;82.36;81552.63;5022447;28;20056;-70
2023/08/12 09:30:38;;;;;;;6.68;1.13;;;;;;;-146.27;83.30;81532.53;5023064;28;20029;-72
2023/08/12 09:33:10;;;;;;;4.00;1.50;;;;;;;-146.27;83.36;81462.25;5021031;28;20079;-72
2023/08/12 09:35:41;;;;;;;5.40;1.30;;;;;;;-146.27;82.67;81452.22;5026387;28;20068;-71
2023/08/12 09:38:13;;;;;;;7.95;1.60;;;;;;;-146.27;84.48;81375.91;5019732;28;20072;-69
2023/08/12 09:40:39;;;;;;;9.10;1.65;;;;;;;-146.27;84.52;81307.63;5029803;28;20040;-75
2023/08/12 09:43:05;;;;;;;7.60;1.42;;;;;;;-146.27;81.93;81333.72;5031400;28;20025;-69
2023/08/12 09:45:31;;;;;;;6.65;1.50;;;;;;;-146.27;80.64;81379.91;5029468;28;20551;-76
2023/08/12 09:47:57;;;;;;;7.50;1.92;;;;;;;-146.27;82.01;81345.78;5031699;28;20029;-72
2023/08/12 09:50:23;;;;;;;4.82;1.10;;;;;;;-146.27;80.62;81355.81;5031588;28;20029;-72
2023/08/12 09:52:50;;;;;;;4.75;1.75;;;;;;;-146.27;82.63;81363.84;5029497;28;20104;-74
2023/08/12 09:55:21;;;;;;;6.05;1.15;;;;;;;-146.27;86.10;81301.59;5031335;28;20026;-73
2023/08/12 09:57:54;;;;;;;8.02;1.58;;;;;;;-146.27;82.30;81379.91;5031818;28;20049;-69
2023/08/12 10:00:21;;;;;;;5.25;1.33;;;;;;;-146.27;83.12;81365.84;5027606;28;20029;-75
2023/08/12 10:02:49;;;;;;;11.00;1.95;;;;;;;-146.27;84.33;81311.63;5026042;28;20025;-73
2023/08/12 10:05:23;;;;;;;4.78;1.30;;;;;;;-146.27;84.86;81259.41;5030389;28;20133;-75
2023/08/12 10:07:49;;;;;;;10.27;1.40;;;;;;;-146.27;84.27;81237.31;5025044;28;20045;-72
2023/08/12 10:10:15;;;;;;;6.65;1.55;;;;;;;-146.27;85.77;81231.31;5026941;28;20057;-71
2023/08/12 10:12:41;;;;;;;10.45;1.63;;;;;;;-146.27;85.62;81130.88;5028533;28;20037;-71
2023/08/12 10:15:08;;;;;;;8.43;1.38;;;;;;;-146.27;85.62;81110.81;5025520;28;20491;-73
2023/08/12 10:17:34;;;;;;;6.35;1.63;;;;;;;-146.27;82.71;81090.72;5028070;28;20026;-74
2023/08/12 10:20:08;;;;;;;5.78;1.42;;;;;;;-146.27;83.55;81020.44;5024828;28;20120;-73
2023/08/12 10:22:35;;;;;;;6.68;1.45;;;;;;;-146.27;83.53;80926.06;5027422;28;20029;-72
2023/08/12 10:25:02;;;;;;;5.30;1.50;;;;;;;-146.27;81.52;80881.88;5026442;28;20059;-73
2023/08/12 10:27:28;;;;;;;11.45;1.80;;;;;;;-146.27;81.84;80839.72;5025452;28;20431;-72
2023/08/12 10:29:59;;;;;;;6.15;1.35;;;;;;;-146.27;81.57;80725.25;5024217;28;20017;-73
2023/08/12 10:32:26;;;;;;;7.68;2.17;;;;;;;-146.27;81.11;80709.19;5027780;28;20041;-75
2023/08/12 10:34:58;;;;;;;7.93;1.42;;;;;;;-146.27;79.42;80592.72;5029337;28;20443;-74
2023/08/12 10:37:25;;;;;;;8.57;1.73;;;;;;;-146.27;78.05;80650.97;5027247;28;20029;-72
2023/08/12 10:39:54;;;;;;;9.07;1.60;;;;;;;-146.27;78.74;80604.78;5025197;28;20025;-75
2023/08/12 10:42:43;;;;;;;9.02;1.73;;;;;;;-146.27;79.39;80504.38;5022626;28;20076;-73
2023/08/12 10:45:09;;;;;;;5.05;1.40;;;;;;;-146.27;74.15;80620.84;5027589;28;20033;-74
2023/08/12 10:47:41;;;;;;;10.07;2.10;;;;;;;-146.27;75.96;80508.41;5028711;28;20039;-73
2023/08/12 10:50:17;;;;;;;7.95;1.85;;;;;;;-146.27;76.55;80524.47;5029911;28;20036;-73
2023/08/12 10:52:45;;;;;;;10.90;1.83;;;;;;;-146.27;75.73;80516.44;5029318;28;20033;-75
2023/08/12 10:55:18;;;;;;;8.60;1.80;;;;;;;-146.27;74.93;80490.34;5026957;28;20060;-74
2023/08/12 10:57:43;;;;;;;7.47;1.83;;;;;;;-146.27;71.45;80528.47;5024945;28;20116;-74
2023/08/12 11:00:17;;;;;;;8.07;2.05;;;;;;;-146.27;72.48;80420.06;5027332;28;20520;-74
2023/08/12 11:02:48;;;;;;;8.15;2.40;;;;;;;-146.27;71.03;80546.56;5028255;28;20538;-75